Estación municipal de St. Julià de Vilatorta (Osona, E.N.Guilleries-Savassona)

Consulta los datos en tiempo real de la estación municipal de St. Julià de Vilatorta





Hora UTC 18:30
Temperatura 12.8 ºC
Subsuelo 10 cm 12.5 ºC
Humedad 87.3 %
Presión 1012.9 hPa
Pluja 0.6 mm
Velocidad viento 5.0 km/h
Dirección viento SE
Radiación solar 14.2 W/m²
Fuel 11.9 %

Webcam

Datos diarios 2026-05-03



Hora UTC (invierno +1h; verano +2h)
Temperatura (ºC) Humedad (%) Presión (hPa) Velocidad viento (km/h) Precipitación (mm) Fuel (%) Radiación solar (W/m²)
Hora UTC Aire Subsuelo 10 cm Humedad Presión Vel. Dir. Vel. Max Dir. Intent. máx 5 min. Fuel Rad. Sol.
00:05 12.5 12.1 80.7 1017.4 1.5 SSW 1.5 SW 0.0 7.1 0.0
00:10 12.5 12.1 81.0 1017.4 1.7 SE 3.5 S 0.0 7.1 0.0
00:15 12.6 12.1 81.5 1017.3 1.8 ESE 3.9 ESE 0.0 7.1 0.0
00:20 12.6 12.1 81.4 1017.2 1.7 NNE 3.1 NE 0.0 7.2 0.0
00:25 12.6 12.1 82.4 1017.2 1.5 S 3.6 S 0.0 7.2 0.0
00:30 12.6 12.1 82.7 1017.1 2.5 SSE 3.9 SSE 0.0 7.2 0.1
00:35 12.7 12.1 83.8 1017.1 2.1 SSW 3.9 SSW 0.0 7.3 0.0
00:40 12.7 12.1 84.3 1017.1 1.2 SSW 3.1 W 0.0 7.3 0.0
00:45 12.7 12.1 85.0 1017.0 1.5 SSW 3.2 W 0.0 7.3 0.0
00:50 12.7 12.1 85.1 1016.9 1.9 SW 5.4 NW 0.0 7.4 0.0
00:55 12.7 12.1 85.5 1016.9 2.0 SW 6.0 WNW 0.0 7.4 0.0
01:00 12.7 12.1 85.5 1016.8 0.9 S 2.3 W 0.0 7.4 0.0
01:05 12.6 12.1 85.9 1016.6 2.4 NW 5.3 NNW 0.0 7.5 0.0
01:10 12.7 12.1 85.8 1016.6 2.4 WNW 4.8 WNW 0.0 7.5 0.1
01:15 12.7 12.1 85.7 1016.6 3.2 W 6.0 W 0.0 7.5 0.0
01:20 12.7 12.1 85.8 1016.6 0.8 SSW 1.8 ESE 0.0 7.6 0.0
01:25 12.6 12.1 85.8 1016.6 1.2 WSW 3.2 W 0.0 7.6 0.0
01:30 12.6 12.1 86.2 1016.6 1.9 SW 4.9 SW 0.0 7.6 0.0
01:35 12.6 12.1 87.0 1016.5 3.3 SSW 6.6 SSW 0.0 7.6 0.0
01:40 12.7 12.1 87.4 1016.4 1.2 ESE 2.7 E 0.0 7.7 0.0
01:45 12.6 12.1 87.5 1016.3 2.2 NE 3.5 E 0.0 7.7 0.0
01:50 12.6 12.1 87.4 1016.2 1.6 E 3.1 ENE 0.0 7.8 0.0
01:55 12.6 12.1 86.7 1016.2 1.9 ESE 3.6 ESE 0.0 7.8 0.0
02:00 12.6 12.1 86.0 1016.1 1.9 E 3.9 ESE 0.0 7.8 0.0
02:05 12.6 12.0 85.7 1016.0 2.3 E 3.9 E 0.0 7.8 0.0
02:10 12.5 12.0 85.7 1016.0 1.3 ENE 3.0 E 0.0 7.8 0.0
02:15 12.5 12.0 85.9 1016.0 1.2 E 2.2 E 0.0 7.9 0.0
02:20 12.5 12.0 86.4 1016.1 2.0 ENE 2.8 ENE 0.0 7.9 0.1
02:25 12.4 12.0 86.8 1016.0 2.1 ENE 3.0 ENE 0.0 7.9 0.0
02:30 12.4 12.0 87.1 1016.0 1.9 ENE 3.6 ENE 0.0 7.9 0.1
02:35 12.4 11.9 87.4 1016.0 1.6 NE 3.1 NNE 0.0 8.0 0.1
02:40 12.4 11.9 87.2 1016.0 0.8 NNE 1.9 NE 0.0 8.0 0.2
02:45 12.4 11.9 87.2 1016.0 1.2 WSW 2.6 WSW 0.0 8.0 0.1
02:50 12.4 11.9 87.2 1016.0 2.6 WNW 5.0 NNW 0.0 8.1 0.2
02:55 12.5 11.9 87.0 1016.1 2.7 W 5.0 NW 0.0 8.1 0.1
03:00 12.5 11.9 87.5 1016.1 1.4 SW 3.7 WSW 0.0 8.1 0.0
03:05 12.5 11.9 88.1 1016.1 1.8 SSW 4.0 WSW 0.0 8.1 0.0
03:10 12.5 12.0 88.6 1016.0 1.9 SSW 3.9 SSW 0.0 8.2 0.0
03:15 12.4 12.0 89.1 1016.0 2.3 S 3.9 SW 0.0 8.2 0.0
03:20 12.4 12.0 88.9 1015.9 3.3 S 5.4 SSW 0.0 8.2 0.0
03:25 12.4 12.0 87.8 1015.9 2.7 S 4.7 S 0.0 8.3 0.0
03:30 12.4 11.9 86.7 1015.8 4.1 S 7.8 SSW 0.0 8.3 0.0
03:35 12.4 11.9 86.2 1015.8 2.9 SSW 5.2 WSW 0.0 8.3 0.0
03:40 12.4 11.9 84.8 1015.8 5.3 SSW 10.3 S 0.0 8.3 0.0
03:45 12.4 11.8 82.8 1015.8 5.7 SSW 9.3 SSW 0.0 8.3 0.0
03:50 12.4 11.8 81.9 1015.8 4.1 SSW 6.7 SSW 0.0 8.2 0.0
03:55 12.3 11.7 81.0 1015.8 3.7 SSW 7.0 SSW 0.0 8.2 0.0
04:00 12.3 11.7 80.6 1015.7 2.8 SSW 5.4 SSW 0.0 8.2 0.0
04:05 12.2 11.6 80.0 1015.8 2.9 SSW 6.2 SSW 0.0 8.2 0.0
04:10 12.2 11.5 79.9 1015.7 3.9 SSW 5.9 SSW 0.0 8.2 0.0
04:15 12.2 11.5 80.2 1015.7 4.2 SSW 7.3 SSW 0.0 8.2 0.0
04:20 12.2 11.4 80.0 1015.7 2.2 SW 6.0 SW 0.0 8.2 0.0
04:25 12.2 11.4 80.5 1015.7 2.7 SSW 5.7 SSW 0.0 8.2 0.0
04:30 12.1 11.3 80.6 1015.6 1.5 SSE 3.0 SSW 0.0 8.2 0.0
04:35 11.9 11.2 81.9 1015.5 1.4 E 2.9 ENE 0.0 8.2 0.0
04:40 11.6 10.9 82.6 1015.4 1.6 SE 3.0 SE 0.0 8.2 0.3
04:45 11.5 10.5 83.0 1015.4 0.7 SSW 1.4 S 0.0 8.2 1.1
04:50 11.3 10.2 83.8 1015.3 1.8 ENE 2.4 ENE 0.0 8.2 2.8
04:55 11.2 10.2 84.5 1015.3 2.3 E 3.8 E 0.0 8.3 5.8
05:00 11.2 10.1 85.0 1015.4 2.2 ESE 3.6 E 0.0 8.3 10.6
05:05 11.2 9.9 85.4 1015.5 1.9 SE 3.2 SSE 0.0 8.3 15.4
05:10 11.2 9.8 85.6 1015.5 2.6 SSE 3.9 SSE 0.0 8.3 17.3
05:15 11.2 9.9 85.8 1015.5 3.4 SSE 6.0 SSE 0.0 8.4 14.0
05:20 11.3 10.2 84.5 1015.5 4.6 SSE 7.6 SSE 0.0 8.4 14.1
05:25 11.4 10.4 82.8 1015.5 2.6 SSE 6.1 SE 0.0 8.4 14.9
05:30 11.4 10.6 83.4 1015.5 2.4 E 4.7 E 0.0 8.4 15.4
05:35 11.4 10.9 83.7 1015.5 2.5 NE 4.7 NNE 0.0 8.4 19.2
05:40 11.5 11.1 81.7 1015.5 3.1 NE 4.4 NNE 0.0 8.4 24.8
05:45 11.6 11.3 82.1 1015.5 1.5 NE 3.1 NE 0.0 8.4 33.8
05:50 11.7 11.6 82.4 1015.5 1.3 NE 2.1 N 0.0 8.4 38.9
05:55 11.8 11.9 82.1 1015.5 1.2 ENE 1.7 E 0.0 8.4 45.4
06:00 11.9 12.1 82.4 1015.5 1.0 SSE 1.8 SE 0.0 8.4 41.5
06:05 12.1 12.2 81.5 1015.5 1.5 SSW 2.3 SSE 0.0 8.4 40.4
06:10 12.1 12.3 80.9 1015.6 1.1 W 1.8 WNW 0.0 8.4 37.3
06:15 12.3 12.5 80.8 1015.5 1.3 SE 2.8 ESE 0.0 8.4 52.0
06:20 12.4 12.8 79.7 1015.5 2.0 E 2.9 ESE 0.0 8.4 95.0
06:25 12.6 13.1 79.2 1015.5 0.8 NNW 2.0 SW 0.0 8.4 124.9
06:30 12.9 13.5 77.9 1015.5 2.4 SSW 3.9 SW 0.0 8.4 122.7
06:35 13.2 13.8 76.7 1015.4 2.3 S 4.1 SE 0.0 8.3 130.6
06:40 13.4 14.1 75.1 1015.4 1.5 SSE 3.7 S 0.0 8.3 163.4
06:45 13.7 14.4 74.7 1015.5 2.3 WSW 4.5 WSW 0.0 8.3 198.7
06:50 13.7 14.7 73.8 1015.5 2.5 W 4.7 W 0.0 8.3 179.4
06:55 13.5 15.0 75.8 1015.5 1.9 N 3.8 ENE 0.0 8.2 181.9
07:00 13.7 15.4 74.1 1015.5 3.4 SSW 6.0 SSW 0.0 8.2 188.4
07:05 13.8 15.7 73.7 1015.5 2.4 WNW 4.7 WNW 0.0 8.1 193.5
07:10 13.8 15.9 73.8 1015.5 3.1 SW 5.4 S 0.0 8.1 193.8
07:15 14.1 16.1 73.9 1015.5 2.9 SW 5.7 S 0.0 8.1 190.9
07:20 14.2 16.2 72.4 1015.5 2.9 W 4.6 WSW 0.0 8.1 204.0
07:25 13.9 16.4 72.0 1015.5 1.7 N 3.4 NW 0.0 8.0 227.8
07:30 14.2 16.7 72.3 1015.5 1.6 SSE 3.2 S 0.0 8.0 235.0
07:35 14.3 17.0 71.2 1015.5 2.1 NNW 4.7 N 0.0 8.0 261.7
07:40 14.1 17.4 72.7 1015.5 2.5 N 4.4 NNW 0.0 8.0 293.5
07:45 14.6 17.8 71.4 1015.5 2.1 WSW 5.1 SW 0.0 7.9 298.7
07:50 14.9 18.1 68.8 1015.5 2.8 SSE 5.9 SSE 0.0 7.9 289.7
07:55 15.2 18.4 68.6 1015.4 2.9 SSW 5.1 SW 0.0 7.9 410.9
08:00 15.4 18.9 67.3 1015.4 4.2 S 7.3 SSE 0.0 7.9 393.1
08:05 15.2 19.4 67.9 1015.4 4.4 SSE 5.9 S 0.0 7.8 375.6
08:10 15.2 19.7 68.2 1015.4 2.7 SSE 7.9 SSW 0.0 7.7 313.6
08:15 15.4 19.8 68.5 1015.4 2.5 WSW 4.4 WNW 0.0 7.7 272.2
08:20 15.1 19.8 68.6 1015.3 1.3 NW 3.0 WNW 0.0 7.7 276.8
08:25 15.2 19.8 68.7 1015.2 2.5 SSW 5.4 S 0.0 7.7 327.3
08:30 15.7 20.0 66.8 1015.2 2.7 S 5.3 SSW 0.0 7.6 332.5
08:35 15.8 20.1 64.8 1015.3 2.5 WSW 6.8 W 0.0 7.6 307.6
08:40 15.4 20.1 67.8 1015.3 3.5 WNW 6.7 NW 0.0 7.5 319.3
08:45 15.2 20.3 67.7 1015.3 3.9 NNW 6.0 NNW 0.0 7.5 367.7
08:50 15.1 20.6 66.9 1015.2 3.1 NW 5.1 WNW 0.0 7.5 378.0
08:55 15.1 20.8 66.4 1015.2 2.8 WNW 5.1 WSW 0.0 7.4 436.9
09:00 15.5 21.2 63.8 1015.3 3.0 NW 8.0 NW 0.0 7.4 469.3
09:05 15.7 21.7 59.5 1015.3 2.7 WNW 7.1 WNW 0.0 7.3 468.4
09:10 15.7 21.9 60.2 1015.4 3.3 WNW 7.1 NNW 0.0 7.3 453.8
09:15 15.7 22.4 59.1 1015.4 3.7 NW 6.1 NNW 0.0 7.2 466.9
09:20 15.9 22.7 56.8 1015.4 1.7 NW 3.6 WNW 0.0 7.2 465.6
09:25 16.5 23.0 58.9 1015.3 2.3 SSE 5.3 SSW 0.0 7.1 411.0
09:30 16.5 23.1 57.7 1015.3 2.3 NE 4.6 NE 0.0 7.1 394.5
09:35 16.6 22.9 60.0 1015.3 4.1 SSW 8.1 SW 0.0 7.0 436.0
09:40 17.0 23.2 59.5 1015.4 2.0 SW 5.1 WSW 0.0 7.0 554.8
09:45 17.4 23.5 58.3 1015.4 2.7 WNW 6.4 NNW 0.0 7.0 458.4
09:50 17.5 23.7 58.0 1015.4 5.4 SSW 9.5 SSW 0.0 7.0 453.7
09:55 17.7 23.8 58.3 1015.4 4.2 SW 9.0 SW 0.0 6.9 388.9
10:00 17.6 23.7 59.4 1015.4 5.8 SW 11.5 SW 0.0 6.9 363.3
10:05 17.4 23.3 61.0 1015.4 4.3 SW 9.2 SSW 0.0 6.8 337.3
10:10 17.4 23.1 60.8 1015.4 6.0 SSW 11.4 SW 0.0 6.8 338.2
10:15 17.3 22.9 62.2 1015.3 4.5 SW 9.5 SW 0.0 6.8 379.4
10:20 17.3 23.0 62.5 1015.3 2.1 SSE 7.1 S 0.0 6.8 363.5
10:25 17.7 23.3 61.9 1015.3 5.1 S 10.3 SSW 0.0 6.8 394.4
10:30 17.7 23.4 59.7 1015.3 4.8 S 9.3 SW 0.0 6.8 394.5
10:35 17.6 23.3 58.5 1015.2 6.4 SW 10.5 SW 0.0 6.8 399.9
10:40 17.7 23.4 59.3 1015.1 4.7 S 7.5 SSE 0.0 6.7 477.4
10:45 18.3 24.2 58.5 1015.0 4.4 SSW 9.4 SSW 0.0 6.8 637.5
10:50 18.7 25.3 55.7 1015.0 4.4 WSW 10.3 SSW 0.0 6.7 717.0
10:55 18.9 26.4 58.0 1014.9 5.0 SW 12.0 SSW 0.0 6.7 632.3
11:00 19.3 26.8 57.5 1014.9 4.1 SW 9.7 SSW 0.0 6.6 473.6
11:05 18.9 27.3 56.8 1014.8 3.6 SSE 9.0 SSW 0.0 6.6 539.0
11:10 19.0 27.4 57.8 1014.8 4.0 SW 6.8 SSW 0.0 6.5 402.6
11:15 18.9 27.0 57.2 1014.7 6.8 SSW 14.3 SSW 0.0 6.5 546.1
11:20 18.9 27.0 57.8 1014.7 7.2 S 14.8 SSW 0.0 6.5 576.0
11:25 19.0 27.4 59.5 1014.6 9.4 SSW 16.2 SSW 0.0 6.5 770.7
11:30 19.2 27.7 60.4 1014.6 8.5 SW 18.2 SW 0.0 6.5 528.7
11:35 19.0 27.1 61.9 1014.6 7.4 SW 21.4 SSW 0.0 6.4 430.7
11:40 18.7 26.0 62.5 1014.6 9.8 SSW 18.6 S 0.0 6.4 350.9
11:45 18.4 25.0 63.6 1014.6 6.5 SSW 15.1 SW 0.0 6.4 258.0
11:50 18.1 24.0 65.2 1014.5 7.7 SW 13.6 SSW 0.0 6.4 236.0
11:55 17.7 23.0 66.2 1014.5 11.6 SSW 20.2 SSW 0.0 6.4 260.2
12:00 17.4 22.3 73.1 1014.4 12.1 SSW 20.4 SW 0.0 6.8 556.2
12:05 17.6 22.7 73.8 1014.3 9.2 SSW 18.0 SW 0.0 6.9 824.0
12:10 18.4 24.2 68.6 1014.2 8.2 SSW 12.9 SSW 0.0 6.9 851.0
12:15 18.9 26.0 66.3 1014.1 5.3 WSW 12.3 WNW 0.0 6.8 717.4
12:20 18.9 27.2 66.0 1014.0 4.2 WSW 8.7 W 0.0 6.7 530.4
12:25 19.3 28.1 63.7 1014.0 6.3 SW 14.4 SSW 0.0 6.7 616.4
12:30 19.4 28.8 64.6 1014.0 7.3 SSW 17.4 SSW 0.0 6.5 700.8
12:35 19.3 29.0 66.5 1014.0 5.3 WSW 12.6 SSW 0.0 6.5 442.2
12:40 18.8 29.0 66.8 1013.8 6.5 WSW 13.7 W 0.0 6.5 606.5
12:45 19.2 28.7 65.0 1013.8 7.9 SSW 14.3 SW 0.0 6.5 339.4
12:50 19.0 27.6 64.1 1013.8 7.5 SSW 14.9 SW 0.0 6.4 251.4
12:55 18.5 26.0 65.0 1013.8 9.4 SSW 17.4 SSW 0.0 6.4 166.5
13:00 18.2 24.4 63.2 1013.8 11.1 S 16.9 SSE 0.0 6.4 146.0
13:05 17.9 23.1 63.9 1013.8 7.7 S 13.0 SSW 0.0 6.4 175.5
13:10 18.1 22.5 64.4 1013.8 6.0 S 9.8 S 0.0 6.4 218.4
13:15 18.2 22.2 63.4 1013.8 5.5 S 10.8 SSE 0.0 6.4 215.5
13:20 18.3 22.0 63.2 1013.8 8.3 SSW 12.9 SW 0.0 6.4 288.1
13:25 18.4 22.1 63.2 1013.8 7.1 S 11.9 SW 0.0 6.4 391.7
13:30 18.6 22.9 63.1 1013.7 6.0 S 10.4 SW 0.0 6.5 557.3
13:35 19.3 24.6 61.3 1013.7 6.3 S 11.7 SSW 0.0 6.5 516.6
13:40 19.2 25.0 60.6 1013.7 6.4 SSW 11.3 S 0.0 6.4 378.4
13:45 19.2 24.9 60.7 1013.6 6.8 SSW 16.5 SSE 0.0 6.4 350.6
13:50 18.8 24.5 60.7 1013.5 13.4 SSW 25.1 SSW 0.0 6.4 296.0
13:55 18.1 23.3 63.1 1013.4 13.9 SSW 22.4 SW 0.0 6.3 240.4
14:00 18.0 22.4 63.3 1013.4 9.9 SSW 19.2 SW 0.0 6.3 196.4
14:05 17.7 21.6 64.0 1013.4 11.9 SSW 19.6 SSW 0.0 6.3 152.0
14:10 17.3 20.6 65.8 1013.3 11.4 SSW 18.9 SW 0.0 6.3 131.0
14:15 17.2 20.0 66.2 1013.3 9.5 SSW 18.0 SW 0.0 6.3 119.9
14:20 16.9 19.4 66.6 1013.2 10.1 S 18.3 SSW 0.0 6.3 108.2
14:25 16.9 19.0 66.2 1013.2 9.1 S 16.1 SSW 0.0 6.3 105.5
14:30 17.0 18.7 66.8 1013.1 8.4 S 16.5 S 0.0 6.3 109.0
14:35 17.0 18.5 66.9 1013.0 9.2 S 19.4 SSE 0.0 6.4 121.7
14:40 16.8 18.4 66.6 1013.0 12.0 SSE 18.1 SSE 0.0 6.4 144.6
14:45 16.7 18.5 66.2 1012.8 9.6 SSE 15.2 SSE 0.0 6.4 230.7
14:50 17.1 19.3 66.2 1012.7 6.0 SSE 12.9 SE 0.0 6.4 321.2
14:55 17.8 20.4 65.0 1012.7 4.0 SSE 9.4 SE 0.0 6.5 289.8
15:00 17.9 21.1 63.7 1012.7 4.3 SSE 10.7 SE 0.0 6.5 213.6
15:05 17.6 21.1 62.3 1012.7 6.5 SE 14.1 SSE 0.0 6.4 190.8
15:10 17.5 20.8 61.7 1012.7 5.9 SSE 12.0 SSE 0.0 6.4 126.0
15:15 17.4 20.3 62.4 1012.7 7.1 S 17.1 SSE 0.0 6.4 93.6
15:20 17.0 19.6 62.7 1012.7 9.1 SSE 16.4 SSE 0.0 6.3 103.9
15:25 16.9 19.2 64.8 1012.7 6.6 SSE 12.2 S 0.0 6.3 95.6
15:30 16.9 18.9 66.0 1012.6 4.6 SSE 9.4 E 0.0 6.3 90.0
15:35 16.7 18.6 66.5 1012.6 6.9 SE 13.9 SE 0.0 6.4 96.1
15:40 16.5 18.3 67.3 1012.6 9.2 SSE 15.5 SSE 0.0 6.4 84.6
15:45 16.4 17.9 68.5 1012.6 8.1 SSE 12.9 SSE 0.0 6.4 73.1
15:50 16.3 17.6 69.0 1012.6 7.9 SSE 14.5 SSE 0.0 6.4 69.3
15:55 16.2 17.2 70.3 1012.6 9.1 SSE 14.7 SE 0.0 6.5 58.2
16:00 16.0 16.8 71.8 1012.7 9.1 SSE 14.8 SSE 0.0 6.5 47.7
16:05 15.9 16.3 72.6 1012.8 6.2 S 13.0 SSE 0.0 6.6 33.1
16:10 15.8 16.0 73.7 1012.8 4.1 SSW 9.1 SW 0.0 6.6 25.1
16:15 15.7 15.8 75.5 1012.8 4.7 S 8.0 S 0.0 6.6 33.1
16:20 15.5 15.6 78.6 1012.9 4.2 S 8.2 SSE 0.0 6.9 39.7
16:25 15.2 15.4 82.3 1012.9 5.4 S 9.4 SSW 0.1 7.9 46.8
16:30 14.9 15.2 84.2 1012.8 4.2 S 10.4 S 0.3 8.9 52.4
16:35 14.7 15.0 85.7 1012.8 4.0 SSW 7.3 SSW 0.1 10.5 47.6
16:40 14.6 14.9 87.2 1012.8 2.6 SSW 5.5 SW 0.0 11.1 45.2
16:45 14.4 14.8 88.2 1012.7 3.9 SSE 11.1 SSE 0.1 11.3 39.3
16:50 14.2 14.7 87.2 1012.6 4.9 SSE 11.2 SE 0.0 11.6 33.8
16:55 14.1 14.6 88.4 1012.6 3.0 SSE 7.8 SE 0.0 11.9 29.1
17:00 13.9 14.4 89.3 1012.6 5.0 SSE 8.4 SE 0.0 12.1 27.2
17:05 13.8 14.2 88.9 1012.6 3.8 SSE 9.9 ESE 0.0 12.1 26.1
17:10 13.7 14.0 88.8 1012.6 5.1 SSE 13.0 SSE 0.0 12.1 26.7
17:15 13.7 13.8 88.4 1012.7 7.2 SSE 15.0 SSE 0.0 12.1 22.1
17:20 13.6 13.6 88.2 1012.7 8.0 SSE 15.3 SSE 0.0 12.1 21.7
17:25 13.4 13.4 87.9 1012.7 10.5 SSE 18.4 SSE 0.0 12.1 24.8
17:30 13.2 13.2 88.4 1012.6 6.3 SE 12.1 SSE 0.0 12.1 33.1
17:35 13.2 13.1 88.7 1012.6 3.8 SE 8.2 ESE 0.0 12.1 42.7
17:40 13.1 13.2 88.3 1012.7 4.0 SSE 7.8 S 0.0 12.1 45.3
17:45 13.2 13.2 88.4 1012.8 4.8 SSE 10.2 SE 0.0 12.1 32.0
17:50 13.1 13.1 87.4 1012.9 7.5 SSE 15.5 SSE 0.0 12.1 22.7
17:55 13.0 13.0 87.4 1012.9 7.7 SSE 15.4 SSE 0.0 12.1 25.8
18:00 13.0 12.8 87.1 1012.9 8.7 SSE 13.7 SSE 0.0 12.0 30.6
18:05 13.0 12.8 87.0 1012.9 7.3 SSE 12.8 S 0.0 12.0 31.8
18:10 12.9 12.8 86.9 1012.9 5.5 SSE 12.2 E 0.0 12.0 32.7
18:15 12.9 12.7 86.8 1012.9 8.3 SSE 15.3 SE 0.0 11.9 30.3
18:20 12.8 12.7 86.7 1012.9 6.3 SE 12.4 SE 0.0 11.9 23.0
18:25 12.8 12.6 86.7 1013.0 5.8 SSE 10.3 SSE 0.0 11.9 16.1
18:30 12.8 12.5 87.3 1012.9 5.0 SE 8.8 SSE 0.0 11.9 14.2
Máxima 19.4 29.0 89.3 1017.4 13.9 SSW 25.1 SSW 0.3 12.1 851.0
Mínima 11.2 9.8 55.7 1012.6 6.3
Total 0.6